sensor_id;sensor_type;location;lat;lon;timestamp;pressure;altitude;pressure_sealevel;temperature;humidity
6134;BME280;3098;42.678;23.364;2022-12-18T00:01:27;95693.31;;;6.15;100.00
6134;BME280;3098;42.678;23.364;2022-12-18T00:04:00;95662.69;;;5.89;100.00
6134;BME280;3098;42.678;23.364;2022-12-18T00:06:38;95702.47;;;6.03;100.00
6134;BME280;3098;42.678;23.364;2022-12-18T00:09:07;95708.81;;;6.07;100.00
6134;BME280;3098;42.678;23.364;2022-12-18T00:11:36;95665.31;;;5.94;100.00
6134;BME280;3098;42.678;23.364;2022-12-18T00:14:04;95697.22;;;6.03;100.00
6134;BME280;3098;42.678;23.364;2022-12-18T00:16:31;95698.81;;;6.04;100.00
6134;BME280;3098;42.678;23.364;2022-12-18T00:19:01;95697.44;;;5.91;100.00
6134;BME280;3098;42.678;23.364;2022-12-18T00:21:32;95705.81;;;5.83;100.00
6134;BME280;3098;42.678;23.364;2022-12-18T00:23:59;95714.81;;;5.87;100.00
6134;BME280;3098;42.678;23.364;2022-12-18T00:26:30;95709.22;;;5.84;100.00
6134;BME280;3098;42.678;23.364;2022-12-18T00:29:01;95716.13;;;5.90;100.00
6134;BME280;3098;42.678;23.364;2022-12-18T00:31:29;95718.78;;;5.90;100.00
6134;BME280;3098;42.678;23.364;2022-12-18T00:33:56;95662.78;;;5.52;100.00
6134;BME280;3098;42.678;23.364;2022-12-18T00:36:26;95671.72;;;5.51;100.00
6134;BME280;3098;42.678;23.364;2022-12-18T00:38:56;95726.06;;;5.77;100.00
6134;BME280;3098;42.678;23.364;2022-12-18T00:41:27;95719.19;;;5.76;100.00
6134;BME280;3098;42.678;23.364;2022-12-18T00:44:15;95684.81;;;5.36;100.00
6134;BME280;3098;42.678;23.364;2022-12-18T00:46:42;95690.34;;;5.40;100.00
6134;BME280;3098;42.678;23.364;2022-12-18T00:49:10;95694.56;;;5.41;100.00
6134;BME280;3098;42.678;23.364;2022-12-18T00:51:37;95680.03;;;5.28;100.00
6134;BME280;3098;42.678;23.364;2022-12-18T00:54:05;95732.84;;;5.63;100.00
6134;BME280;3098;42.678;23.364;2022-12-18T00:56:35;95593.09;;;4.51;100.00
6134;BME280;3098;42.678;23.364;2022-12-18T00:59:03;95698.19;;;5.25;100.00
6134;BME280;3098;42.678;23.364;2022-12-18T01:01:33;95640.31;;;4.83;100.00
6134;BME280;3098;42.678;23.364;2022-12-18T01:04:02;95746.91;;;5.42;100.00
6134;BME280;3098;42.678;23.364;2022-12-18T01:06:30;95732.63;;;5.28;100.00
6134;BME280;3098;42.678;23.364;2022-12-18T01:09:00;95747.72;;;5.43;100.00
6134;BME280;3098;42.678;23.364;2022-12-18T01:11:30;95700.69;;;5.09;100.00
6134;BME280;3098;42.678;23.364;2022-12-18T01:14:02;95752.94;;;5.38;100.00
6134;BME280;3098;42.678;23.364;2022-12-18T01:16:32;95760.03;;;5.37;100.00
6134;BME280;3098;42.678;23.364;2022-12-18T01:18:59;95714.66;;;5.10;100.00
6134;BME280;3098;42.678;23.364;2022-12-18T01:21:26;95699.06;;;4.98;100.00
6134;BME280;3098;42.678;23.364;2022-12-18T01:23:56;95640.66;;;4.54;100.00
6134;BME280;3098;42.678;23.364;2022-12-18T01:26:24;95715.31;;;4.95;100.00
6134;BME280;3098;42.678;23.364;2022-12-18T01:28:54;95522.25;;;3.61;100.00
6134;BME280;3098;42.678;23.364;2022-12-18T01:31:23;95719.16;;;4.83;100.00
6134;BME280;3098;42.678;23.364;2022-12-18T01:33:53;95771.16;;;5.07;100.00
6134;BME280;3098;42.678;23.364;2022-12-18T01:36:22;95770.66;;;5.10;100.00
6134;BME280;3098;42.678;23.364;2022-12-18T01:38:51;95678.69;;;4.47;100.00
6134;BME280;3098;42.678;23.364;2022-12-18T01:41:20;95772.66;;;4.98;100.00
6134;BME280;3098;42.678;23.364;2022-12-18T01:43:51;95694.94;;;4.44;100.00
6134;BME280;3098;42.678;23.364;2022-12-18T01:46:21;95789.13;;;4.89;100.00
6134;BME280;3098;42.678;23.364;2022-12-18T01:48:54;95778.88;;;4.87;100.00
6134;BME280;3098;42.678;23.364;2022-12-18T01:51:24;95774.31;;;4.78;100.00
6134;BME280;3098;42.678;23.364;2022-12-18T01:53:52;95792.19;;;4.76;100.00
6134;BME280;3098;42.678;23.364;2022-12-18T01:56:22;95780.03;;;4.70;100.00
6134;BME280;3098;42.678;23.364;2022-12-18T01:58:53;95783.69;;;4.69;100.00
6134;BME280;3098;42.678;23.364;2022-12-18T02:01:22;95778.66;;;4.62;100.00
6134;BME280;3098;42.678;23.364;2022-12-18T02:03:50;95782.63;;;4.64;100.00
6134;BME280;3098;42.678;23.364;2022-12-18T02:06:22;95791.50;;;4.58;100.00
6134;BME280;3098;42.678;23.364;2022-12-18T02:09:02;95791.72;;;4.57;100.00
6134;BME280;3098;42.678;23.364;2022-12-18T02:11:40;95791.94;;;4.50;100.00
6134;BME280;3098;42.678;23.364;2022-12-18T02:14:18;95760.53;;;4.34;100.00
6134;BME280;3098;42.678;23.364;2022-12-18T02:16:54;95755.41;;;4.22;100.00
6134;BME280;3098;42.678;23.364;2022-12-18T02:19:43;95805.38;;;4.54;100.00
6134;BME280;3098;42.678;23.364;2022-12-18T02:22:26;95789.16;;;4.35;100.00
6134;BME280;3098;42.678;23.364;2022-12-18T02:25:09;95796.31;;;4.40;100.00
6134;BME280;3098;42.678;23.364;2022-12-18T02:27:45;95817.91;;;4.47;100.00
6134;BME280;3098;42.678;23.364;2022-12-18T02:30:14;95810.81;;;4.47;100.00
6134;BME280;3098;42.678;23.364;2022-12-18T02:32:45;95750.16;;;4.00;100.00
6134;BME280;3098;42.678;23.364;2022-12-18T02:35:18;95784.28;;;4.22;100.00
6134;BME280;3098;42.678;23.364;2022-12-18T02:37:47;95808.88;;;4.38;100.00
6134;BME280;3098;42.678;23.364;2022-12-18T02:40:16;95784.97;;;4.13;100.00
6134;BME280;3098;42.678;23.364;2022-12-18T02:42:45;95825.03;;;4.25;100.00
6134;BME280;3098;42.678;23.364;2022-12-18T02:45:12;95768.06;;;3.82;100.00
6134;BME280;3098;42.678;23.364;2022-12-18T02:47:43;95693.03;;;3.37;100.00
6134;BME280;3098;42.678;23.364;2022-12-18T02:50:18;95829.09;;;4.16;100.00
6134;BME280;3098;42.678;23.364;2022-12-18T02:52:55;95811.34;;;4.01;100.00
6134;BME280;3098;42.678;23.364;2022-12-18T02:55:35;95823.75;;;4.05;100.00
6134;BME280;3098;42.678;23.364;2022-12-18T02:58:15;95773.47;;;3.75;100.00
6134;BME280;3098;42.678;23.364;2022-12-18T03:00:55;95697.41;;;3.15;100.00
6134;BME280;3098;42.678;23.364;2022-12-18T03:03:27;95789.22;;;3.75;100.00
6134;BME280;3098;42.678;23.364;2022-12-18T03:06:00;95835.75;;;4.01;100.00
6134;BME280;3098;42.678;23.364;2022-12-18T03:08:33;95839.19;;;4.02;100.00
6134;BME280;3098;42.678;23.364;2022-12-18T03:11:04;95831.78;;;3.99;100.00
6134;BME280;3098;42.678;23.364;2022-12-18T03:13:37;95857.94;;;4.11;100.00
6134;BME280;3098;42.678;23.364;2022-12-18T03:16:09;95856.69;;;4.18;100.00
6134;BME280;3098;42.678;23.364;2022-12-18T03:18:39;95853.00;;;4.14;100.00
6134;BME280;3098;42.678;23.364;2022-12-18T03:21:11;95822.03;;;3.94;100.00
6134;BME280;3098;42.678;23.364;2022-12-18T03:23:42;95832.59;;;3.99;100.00
6134;BME280;3098;42.678;23.364;2022-12-18T03:26:15;95846.25;;;4.01;100.00
6134;BME280;3098;42.678;23.364;2022-12-18T03:28:49;95845.50;;;4.06;100.00
6134;BME280;3098;42.678;23.364;2022-12-18T03:31:20;95856.09;;;4.11;100.00
6134;BME280;3098;42.678;23.364;2022-12-18T03:33:52;95858.91;;;4.04;100.00
6134;BME280;3098;42.678;23.364;2022-12-18T03:36:23;95870.25;;;4.10;100.00
6134;BME280;3098;42.678;23.364;2022-12-18T03:38:51;95870.91;;;4.00;100.00
6134;BME280;3098;42.678;23.364;2022-12-18T03:41:22;95865.38;;;3.97;100.00
6134;BME280;3098;42.678;23.364;2022-12-18T03:44:00;95802.31;;;3.54;100.00
6134;BME280;3098;42.678;23.364;2022-12-18T03:46:40;95874.53;;;3.94;100.00
6134;BME280;3098;42.678;23.364;2022-12-18T03:49:12;95795.34;;;3.42;100.00
6134;BME280;3098;42.678;23.364;2022-12-18T03:51:46;95875.97;;;3.85;100.00
6134;BME280;3098;42.678;23.364;2022-12-18T03:54:18;95791.56;;;3.17;100.00
6134;BME280;3098;42.678;23.364;2022-12-18T03:56:48;95889.09;;;3.85;100.00
6134;BME280;3098;42.678;23.364;2022-12-18T03:59:19;95894.41;;;3.90;100.00
6134;BME280;3098;42.678;23.364;2022-12-18T04:01:49;95876.44;;;3.82;100.00
6134;BME280;3098;42.678;23.364;2022-12-18T04:04:18;95907.19;;;4.03;100.00
6134;BME280;3098;42.678;23.364;2022-12-18T04:06:47;95899.88;;;4.05;100.00
6134;BME280;3098;42.678;23.364;2022-12-18T04:09:17;95874.63;;;3.83;100.00
6134;BME280;3098;42.678;23.364;2022-12-18T04:11:46;95898.75;;;4.01;100.00
6134;BME280;3098;42.678;23.364;2022-12-18T04:14:13;95898.75;;;4.01;100.00
6134;BME280;3098;42.678;23.364;2022-12-18T04:16:42;95901.22;;;4.08;100.00
6134;BME280;3098;42.678;23.364;2022-12-18T04:19:09;95906.38;;;4.03;100.00
6134;BME280;3098;42.678;23.364;2022-12-18T04:21:36;95917.38;;;4.00;100.00
6134;BME280;3098;42.678;23.364;2022-12-18T04:24:04;95917.69;;;3.87;100.00
6134;BME280;3098;42.678;23.364;2022-12-18T04:26:31;95926.28;;;3.99;100.00
6134;BME280;3098;42.678;23.364;2022-12-18T04:28:58;95923.88;;;3.97;100.00
6134;BME280;3098;42.678;23.364;2022-12-18T04:31:26;95928.09;;;3.98;100.00
6134;BME280;3098;42.678;23.364;2022-12-18T04:33:54;95930.59;;;3.88;100.00
6134;BME280;3098;42.678;23.364;2022-12-18T04:36:21;95900.28;;;3.81;100.00
6134;BME280;3098;42.678;23.364;2022-12-18T04:38:48;95868.69;;;3.54;100.00
6134;BME280;3098;42.678;23.364;2022-12-18T04:41:15;95931.69;;;3.92;100.00
6134;BME280;3098;42.678;23.364;2022-12-18T04:43:42;95894.03;;;3.65;100.00
6134;BME280;3098;42.678;23.364;2022-12-18T04:46:10;95913.59;;;3.74;100.00
6134;BME280;3098;42.678;23.364;2022-12-18T04:48:37;95878.53;;;3.47;100.00
6134;BME280;3098;42.678;23.364;2022-12-18T04:51:06;95963.66;;;3.89;100.00
6134;BME280;3098;42.678;23.364;2022-12-18T04:53:33;95948.31;;;3.81;100.00
6134;BME280;3098;42.678;23.364;2022-12-18T04:56:06;95926.81;;;3.63;100.00
6134;BME280;3098;42.678;23.364;2022-12-18T04:58:34;95912.72;;;3.52;100.00
6134;BME280;3098;42.678;23.364;2022-12-18T05:01:01;95896.69;;;3.32;100.00
6134;BME280;3098;42.678;23.364;2022-12-18T05:03:28;95924.47;;;3.49;100.00
6134;BME280;3098;42.678;23.364;2022-12-18T05:05:55;95959.63;;;3.65;100.00
6134;BME280;3098;42.678;23.364;2022-12-18T05:08:24;95968.78;;;3.63;100.00
6134;BME280;3098;42.678;23.364;2022-12-18T05:10:59;95969.31;;;3.65;100.00
6134;BME280;3098;42.678;23.364;2022-12-18T05:13:35;95932.53;;;3.43;100.00
6134;BME280;3098;42.678;23.364;2022-12-18T05:16:05;95919.63;;;3.25;100.00
6134;BME280;3098;42.678;23.364;2022-12-18T05:18:40;95983.84;;;3.56;100.00
6134;BME280;3098;42.678;23.364;2022-12-18T05:21:11;95985.22;;;3.58;100.00
6134;BME280;3098;42.678;23.364;2022-12-18T05:23:58;95970.81;;;3.44;100.00
6134;BME280;3098;42.678;23.364;2022-12-18T05:26:35;96002.13;;;3.51;100.00
6134;BME280;3098;42.678;23.364;2022-12-18T05:29:11;95997.38;;;3.47;100.00
6134;BME280;3098;42.678;23.364;2022-12-18T05:31:40;95979.13;;;3.24;100.00
6134;BME280;3098;42.678;23.364;2022-12-18T05:34:18;95999.78;;;3.49;100.00
6134;BME280;3098;42.678;23.364;2022-12-18T05:36:45;95968.53;;;3.19;100.00
6134;BME280;3098;42.678;23.364;2022-12-18T05:39:19;96010.16;;;3.61;100.00
6134;BME280;3098;42.678;23.364;2022-12-18T05:41:48;96014.53;;;3.55;100.00
6134;BME280;3098;42.678;23.364;2022-12-18T05:44:23;96014.69;;;3.48;100.00
6134;BME280;3098;42.678;23.364;2022-12-18T05:46:51;95936.72;;;2.99;100.00
6134;BME280;3098;42.678;23.364;2022-12-18T05:49:23;96015.97;;;3.46;100.00
6134;BME280;3098;42.678;23.364;2022-12-18T05:51:59;96019.69;;;3.50;100.00
6134;BME280;3098;42.678;23.364;2022-12-18T05:54:41;95973.41;;;3.27;100.00
6134;BME280;3098;42.678;23.364;2022-12-18T05:57:14;95994.56;;;3.37;100.00
6134;BME280;3098;42.678;23.364;2022-12-18T05:59:47;95949.69;;;3.06;100.00
6134;BME280;3098;42.678;23.364;2022-12-18T06:02:15;96013.44;;;3.51;100.00
6134;BME280;3098;42.678;23.364;2022-12-18T06:04:43;95958.81;;;3.03;100.00
6134;BME280;3098;42.678;23.364;2022-12-18T06:07:09;95978.38;;;3.12;100.00
6134;BME280;3098;42.678;23.364;2022-12-18T06:09:38;96034.22;;;3.41;100.00
6134;BME280;3098;42.678;23.364;2022-12-18T06:12:06;96032.94;;;3.43;100.00
6134;BME280;3098;42.678;23.364;2022-12-18T06:14:34;96028.09;;;3.35;100.00
6134;BME280;3098;42.678;23.364;2022-12-18T06:17:01;96052.94;;;3.33;100.00
6134;BME280;3098;42.678;23.364;2022-12-18T06:19:29;96003.03;;;3.00;100.00
6134;BME280;3098;42.678;23.364;2022-12-18T06:21:56;96012.44;;;3.12;100.00
6134;BME280;3098;42.678;23.364;2022-12-18T06:24:25;96054.56;;;3.34;100.00
6134;BME280;3098;42.678;23.364;2022-12-18T06:26:53;95921.31;;;2.46;100.00
6134;BME280;3098;42.678;23.364;2022-12-18T06:29:21;95960.09;;;2.72;100.00
6134;BME280;3098;42.678;23.364;2022-12-18T06:31:48;96036.25;;;3.22;100.00
6134;BME280;3098;42.678;23.364;2022-12-18T06:34:16;96012.34;;;3.07;100.00
6134;BME280;3098;42.678;23.364;2022-12-18T06:36:43;96067.75;;;3.39;100.00
6134;BME280;3098;42.678;23.364;2022-12-18T06:39:11;95995.78;;;2.90;100.00
6134;BME280;3098;42.678;23.364;2022-12-18T06:41:38;96093.59;;;3.47;100.00
6134;BME280;3098;42.678;23.364;2022-12-18T06:44:08;96074.69;;;3.45;100.00
6134;BME280;3098;42.678;23.364;2022-12-18T06:46:35;96092.59;;;3.48;100.00
6134;BME280;3098;42.678;23.364;2022-12-18T06:49:03;96082.09;;;3.48;100.00
6134;BME280;3098;42.678;23.364;2022-12-18T06:51:30;96046.03;;;3.27;100.00
6134;BME280;3098;42.678;23.364;2022-12-18T06:53:57;96082.66;;;3.50;100.00
6134;BME280;3098;42.678;23.364;2022-12-18T06:56:25;96076.47;;;3.56;100.00
6134;BME280;3098;42.678;23.364;2022-12-18T06:58:52;96079.56;;;3.53;100.00
6134;BME280;3098;42.678;23.364;2022-12-18T07:01:21;96025.56;;;3.12;100.00
6134;BME280;3098;42.678;23.364;2022-12-18T07:03:52;95996.44;;;2.97;100.00
6134;BME280;3098;42.678;23.364;2022-12-18T07:06:22;96061.06;;;3.31;100.00
6134;BME280;3098;42.678;23.364;2022-12-18T07:08:51;96099.66;;;3.47;100.00
6134;BME280;3098;42.678;23.364;2022-12-18T07:11:20;95917.91;;;2.34;100.00
6134;BME280;3098;42.678;23.364;2022-12-18T07:13:47;96098.59;;;3.60;100.00
6134;BME280;3098;42.678;23.364;2022-12-18T07:16:17;96080.13;;;3.55;100.00
6134;BME280;3098;42.678;23.364;2022-12-18T07:18:47;96106.09;;;3.68;100.00
6134;BME280;3098;42.678;23.364;2022-12-18T07:21:15;96106.63;;;3.70;100.00
6134;BME280;3098;42.678;23.364;2022-12-18T07:23:44;96104.94;;;3.64;100.00
6134;BME280;3098;42.678;23.364;2022-12-18T07:26:14;96061.88;;;3.32;100.00
6134;BME280;3098;42.678;23.364;2022-12-18T07:28:43;96070.84;;;3.36;100.00
6134;BME280;3098;42.678;23.364;2022-12-18T07:31:14;96108.03;;;3.61;100.00
6134;BME280;3098;42.678;23.364;2022-12-18T07:33:42;96092.97;;;3.40;100.00
6134;BME280;3098;42.678;23.364;2022-12-18T07:36:12;96121.53;;;3.53;100.00
6134;BME280;3098;42.678;23.364;2022-12-18T07:38:40;96117.72;;;3.61;100.00
6134;BME280;3098;42.678;23.364;2022-12-18T07:41:09;96121.75;;;3.63;100.00
6134;BME280;3098;42.678;23.364;2022-12-18T07:43:37;96082.16;;;3.25;100.00
6134;BME280;3098;42.678;23.364;2022-12-18T07:46:05;96127.84;;;3.40;100.00
6134;BME280;3098;42.678;23.364;2022-12-18T07:48:32;96140.72;;;3.42;100.00
6134;BME280;3098;42.678;23.364;2022-12-18T07:51:01;96115.88;;;3.33;100.00
6134;BME280;3098;42.678;23.364;2022-12-18T07:53:31;96132.16;;;3.46;100.00
6134;BME280;3098;42.678;23.364;2022-12-18T07:56:00;96129.88;;;3.50;100.00
6134;BME280;3098;42.678;23.364;2022-12-18T07:58:28;96039.31;;;2.79;100.00
6134;BME280;3098;42.678;23.364;2022-12-18T08:01:03;96146.31;;;3.45;100.00
6134;BME280;3098;42.678;23.364;2022-12-18T08:03:31;96144.59;;;3.51;100.00
6134;BME280;3098;42.678;23.364;2022-12-18T08:05:59;96117.50;;;3.34;100.00
6134;BME280;3098;42.678;23.364;2022-12-18T08:08:27;96055.59;;;2.81;100.00
6134;BME280;3098;42.678;23.364;2022-12-18T08:10:55;96163.19;;;3.38;100.00
6134;BME280;3098;42.678;23.364;2022-12-18T08:13:22;96161.28;;;3.33;100.00
6134;BME280;3098;42.678;23.364;2022-12-18T08:15:55;96164.81;;;3.27;100.00
6134;BME280;3098;42.678;23.364;2022-12-18T08:18:23;96169.59;;;3.30;100.00
6134;BME280;3098;42.678;23.364;2022-12-18T08:20:51;96183.06;;;3.34;100.00
6134;BME280;3098;42.678;23.364;2022-12-18T08:23:19;96149.09;;;3.16;100.00
6134;BME280;3098;42.678;23.364;2022-12-18T08:25:47;95971.19;;;2.05;100.00
6134;BME280;3098;42.678;23.364;2022-12-18T08:28:16;96193.28;;;3.35;100.00
6134;BME280;3098;42.678;23.364;2022-12-18T08:30:43;96186.22;;;3.36;100.00
6134;BME280;3098;42.678;23.364;2022-12-18T08:33:11;96176.69;;;3.18;100.00
6134;BME280;3098;42.678;23.364;2022-12-18T08:35:38;96173.38;;;3.23;100.00
6134;BME280;3098;42.678;23.364;2022-12-18T08:38:07;96093.34;;;2.69;100.00
6134;BME280;3098;42.678;23.364;2022-12-18T08:40:34;96176.56;;;3.13;100.00
6134;BME280;3098;42.678;23.364;2022-12-18T08:43:02;96195.81;;;3.30;100.00
6134;BME280;3098;42.678;23.364;2022-12-18T08:45:48;96195.59;;;3.32;100.00
6134;BME280;3098;42.678;23.364;2022-12-18T08:48:16;96202.53;;;3.38;100.00
6134;BME280;3098;42.678;23.364;2022-12-18T08:50:43;96204.22;;;3.44;100.00
6134;BME280;3098;42.678;23.364;2022-12-18T08:53:12;96099.00;;;2.89;100.00
6134;BME280;3098;42.678;23.364;2022-12-18T08:55:39;96203.16;;;3.68;100.00
6134;BME280;3098;42.678;23.364;2022-12-18T08:58:07;96198.59;;;3.64;100.00
6134;BME280;3098;42.678;23.364;2022-12-18T09:00:34;96201.91;;;3.71;100.00
6134;BME280;3098;42.678;23.364;2022-12-18T09:03:03;96197.56;;;3.65;100.00
6134;BME280;3098;42.678;23.364;2022-12-18T09:05:30;96135.59;;;3.35;100.00
6134;BME280;3098;42.678;23.364;2022-12-18T09:07:58;96137.78;;;3.27;100.00
6134;BME280;3098;42.678;23.364;2022-12-18T09:10:25;96203.28;;;3.62;100.00
6134;BME280;3098;42.678;23.364;2022-12-18T09:12:54;96197.91;;;3.68;100.00
6134;BME280;3098;42.678;23.364;2022-12-18T09:15:22;96196.56;;;3.66;100.00
6134;BME280;3098;42.678;23.364;2022-12-18T09:17:50;96134.41;;;3.26;100.00
6134;BME280;3098;42.678;23.364;2022-12-18T09:20:20;96123.75;;;3.33;100.00
6134;BME280;3098;42.678;23.364;2022-12-18T09:22:47;96198.00;;;3.73;100.00
6134;BME280;3098;42.678;23.364;2022-12-18T09:25:14;95972.69;;;2.24;100.00
6134;BME280;3098;42.678;23.364;2022-12-18T09:27:43;96008.38;;;2.53;100.00
6134;BME280;3098;42.678;23.364;2022-12-18T09:30:10;96177.81;;;3.74;100.00
6134;BME280;3098;42.678;23.364;2022-12-18T09:32:37;96187.06;;;3.65;100.00
6134;BME280;3098;42.678;23.364;2022-12-18T09:35:06;96094.19;;;3.09;100.00
6134;BME280;3098;42.678;23.364;2022-12-18T09:37:36;96192.75;;;3.73;100.00
6134;BME280;3098;42.678;23.364;2022-12-18T09:40:04;96070.16;;;3.01;100.00
6134;BME280;3098;42.678;23.364;2022-12-18T09:42:34;96169.28;;;3.67;100.00
6134;BME280;3098;42.678;23.364;2022-12-18T09:45:03;96197.97;;;3.85;100.00
6134;BME280;3098;42.678;23.364;2022-12-18T09:47:36;96204.81;;;3.86;100.00
6134;BME280;3098;42.678;23.364;2022-12-18T09:50:19;96173.97;;;3.65;100.00
6134;BME280;3098;42.678;23.364;2022-12-18T09:52:54;96132.59;;;3.43;100.00
6134;BME280;3098;42.678;23.364;2022-12-18T09:55:27;96203.28;;;4.01;100.00
6134;BME280;3098;42.678;23.364;2022-12-18T09:57:58;96191.38;;;4.11;100.00
6134;BME280;3098;42.678;23.364;2022-12-18T10:00:28;96199.66;;;4.19;100.00
6134;BME280;3098;42.678;23.364;2022-12-18T10:03:01;96173.00;;;4.11;100.00
6134;BME280;3098;42.678;23.364;2022-12-18T10:05:37;96166.78;;;4.00;100.00
6134;BME280;3098;42.678;23.364;2022-12-18T10:08:13;96202.03;;;4.21;100.00
6134;BME280;3098;42.678;23.364;2022-12-18T10:10:46;96199.50;;;4.26;100.00
6134;BME280;3098;42.678;23.364;2022-12-18T10:13:23;96162.63;;;4.04;100.00
6134;BME280;3098;42.678;23.364;2022-12-18T10:16:09;96079.56;;;3.53;100.00
6134;BME280;3098;42.678;23.364;2022-12-18T10:18:59;96158.31;;;3.98;100.00
6134;BME280;3098;42.678;23.364;2022-12-18T10:21:32;96104.00;;;3.70;100.00
6134;BME280;3098;42.678;23.364;2022-12-18T10:24:13;96157.91;;;4.06;100.00
6134;BME280;3098;42.678;23.364;2022-12-18T10:26:51;96037.13;;;3.56;100.00
6134;BME280;3098;42.678;23.364;2022-12-18T10:29:19;96192.69;;;4.58;100.00
6134;BME280;3098;42.678;23.364;2022-12-18T10:31:47;96119.13;;;4.25;100.00
6134;BME280;3098;42.678;23.364;2022-12-18T10:34:15;96192.28;;;4.66;100.00
6134;BME280;3098;42.678;23.364;2022-12-18T10:36:43;96187.38;;;4.70;100.00
6134;BME280;3098;42.678;23.364;2022-12-18T10:39:19;96127.75;;;4.37;100.00
6134;BME280;3098;42.678;23.364;2022-12-18T10:41:48;96160.84;;;4.54;100.00
6134;BME280;3098;42.678;23.364;2022-12-18T10:44:19;96189.44;;;4.68;100.00
6134;BME280;3098;42.678;23.364;2022-12-18T10:46:49;96188.25;;;4.58;100.00
6134;BME280;3098;42.678;23.364;2022-12-18T10:49:23;96152.34;;;4.31;100.00
6134;BME280;3098;42.678;23.364;2022-12-18T10:52:05;96181.38;;;4.41;100.00
6134;BME280;3098;42.678;23.364;2022-12-18T10:54:34;96158.94;;;4.33;100.00
6134;BME280;3098;42.678;23.364;2022-12-18T10:57:16;96186.63;;;4.57;100.00
6134;BME280;3098;42.678;23.364;2022-12-18T10:59:52;96075.59;;;3.95;100.00
6134;BME280;3098;42.678;23.364;2022-12-18T11:02:29;96146.75;;;4.44;100.00
6134;BME280;3098;42.678;23.364;2022-12-18T11:05:02;96180.34;;;4.75;100.00
6134;BME280;3098;42.678;23.364;2022-12-18T11:07:47;96163.16;;;4.51;100.00
6134;BME280;3098;42.678;23.364;2022-12-18T11:10:18;96101.38;;;4.15;100.00
6134;BME280;3098;42.678;23.364;2022-12-18T11:12:46;96143.25;;;4.55;100.00
6134;BME280;3098;42.678;23.364;2022-12-18T11:15:16;96192.88;;;4.85;100.00
6134;BME280;3098;42.678;23.364;2022-12-18T11:17:47;96191.50;;;4.49;100.00
6134;BME280;3098;42.678;23.364;2022-12-18T11:20:23;96173.91;;;4.66;100.00
6134;BME280;3098;42.678;23.364;2022-12-18T11:22:56;96188.25;;;4.58;100.00
6134;BME280;3098;42.678;23.364;2022-12-18T11:25:26;96065.16;;;3.84;100.00
6134;BME280;3098;42.678;23.364;2022-12-18T11:27:55;96196.19;;;4.63;100.00
6134;BME280;3098;42.678;23.364;2022-12-18T11:30:26;96198.59;;;4.65;100.00
6134;BME280;3098;42.678;23.364;2022-12-18T11:32:56;96124.19;;;4.15;100.00
6134;BME280;3098;42.678;23.364;2022-12-18T11:35:34;96183.78;;;4.59;100.00
6134;BME280;3098;42.678;23.364;2022-12-18T11:38:10;96188.56;;;4.62;100.00
6134;BME280;3098;42.678;23.364;2022-12-18T11:40:43;96190.66;;;4.77;100.00
6134;BME280;3098;42.678;23.364;2022-12-18T11:43:16;96170.78;;;4.69;100.00
6134;BME280;3098;42.678;23.364;2022-12-18T11:45:50;96170.56;;;4.54;100.00
6134;BME280;3098;42.678;23.364;2022-12-18T11:48:23;96126.13;;;4.36;100.00
6134;BME280;3098;42.678;23.364;2022-12-18T11:50:53;96176.53;;;4.66;100.00
6134;BME280;3098;42.678;23.364;2022-12-18T11:53:25;96174.22;;;4.53;100.00
6134;BME280;3098;42.678;23.364;2022-12-18T11:56:15;96130.03;;;4.33;100.00
6134;BME280;3098;42.678;23.364;2022-12-18T11:58:52;96182.25;;;4.63;100.00
6134;BME280;3098;42.678;23.364;2022-12-18T12:01:33;96184.81;;;4.75;100.00
6134;BME280;3098;42.678;23.364;2022-12-18T12:07:05;96196.38;;;4.74;100.00
6134;BME280;3098;42.678;23.364;2022-12-18T12:09:40;96193.56;;;4.80;100.00
6134;BME280;3098;42.678;23.364;2022-12-18T12:12:27;96130.91;;;4.39;100.00
6134;BME280;3098;42.678;23.364;2022-12-18T12:15:17;96193.16;;;4.72;100.00
6134;BME280;3098;42.678;23.364;2022-12-18T12:17:50;96164.34;;;4.60;100.00
6134;BME280;3098;42.678;23.364;2022-12-18T12:20:22;96186.75;;;4.62;100.00
6134;BME280;3098;42.678;23.364;2022-12-18T12:22:57;96197.25;;;4.79;100.00
6134;BME280;3098;42.678;23.364;2022-12-18T12:25:33;96192.47;;;4.93;100.00
6134;BME280;3098;42.678;23.364;2022-12-18T12:28:15;96125.34;;;4.52;100.00
6134;BME280;3098;42.678;23.364;2022-12-18T12:30:57;96188.25;;;4.75;100.00
6134;BME280;3098;42.678;23.364;2022-12-18T12:33:35;96102.81;;;4.23;100.00
6134;BME280;3098;42.678;23.364;2022-12-18T12:36:10;96204.31;;;4.95;100.00
6134;BME280;3098;42.678;23.364;2022-12-18T12:38:46;96205.50;;;4.71;100.00
6134;BME280;3098;42.678;23.364;2022-12-18T12:41:18;96208.06;;;4.66;100.00
6134;BME280;3098;42.678;23.364;2022-12-18T12:44:08;96164.19;;;4.50;100.00
6134;BME280;3098;42.678;23.364;2022-12-18T12:46:39;96168.66;;;4.49;100.00
6134;BME280;3098;42.678;23.364;2022-12-18T12:49:11;96190.78;;;4.70;100.00
6134;BME280;3098;42.678;23.364;2022-12-18T12:51:42;96163.16;;;4.51;100.00
6134;BME280;3098;42.678;23.364;2022-12-18T12:54:15;96187.53;;;4.63;100.00
6134;BME280;3098;42.678;23.364;2022-12-18T12:56:50;96144.59;;;4.41;100.00
6134;BME280;3098;42.678;23.364;2022-12-18T12:59:25;96215.25;;;4.87;100.00
6134;BME280;3098;42.678;23.364;2022-12-18T13:02:04;96191.66;;;4.76;100.00
6134;BME280;3098;42.678;23.364;2022-12-18T13:04:36;96222.41;;;4.92;100.00
6134;BME280;3098;42.678;23.364;2022-12-18T13:07:14;96221.53;;;4.86;100.00
6134;BME280;3098;42.678;23.364;2022-12-18T13:10:25;96212.16;;;4.90;100.00
6134;BME280;3098;42.678;23.364;2022-12-18T13:12:54;96227.84;;;5.02;100.00
6134;BME280;3098;42.678;23.364;2022-12-18T13:15:25;96184.97;;;4.51;100.00
6134;BME280;3098;42.678;23.364;2022-12-18T13:18:17;96218.03;;;4.64;100.00
6134;BME280;3098;42.678;23.364;2022-12-18T13:20:46;96242.31;;;4.71;100.00
6134;BME280;3098;42.678;23.364;2022-12-18T13:23:31;96234.75;;;4.75;100.00
6134;BME280;3098;42.678;23.364;2022-12-18T13:26:00;96239.94;;;4.70;100.00
6134;BME280;3098;42.678;23.364;2022-12-18T13:28:53;96238.81;;;4.65;100.00
6134;BME280;3098;42.678;23.364;2022-12-18T13:34:35;96242.97;;;4.78;100.00
6134;BME280;3098;42.678;23.364;2022-12-18T13:37:42;96245.91;;;4.82;100.00
6134;BME280;3098;42.678;23.364;2022-12-18T13:43:27;96213.53;;;4.31;100.00